createdAt,value
2022-08-31T00:00:12.768Z,8.75
2022-08-31T00:02:58.521Z,8.23
2022-08-31T00:05:25.737Z,7.47
2022-08-31T00:07:52.783Z,8.88
2022-08-31T00:10:32.532Z,8.15
2022-08-31T00:13:01.284Z,8.05
2022-08-31T00:15:30.469Z,8.85
2022-08-31T00:17:57.410Z,9.98
2022-08-31T00:20:32.574Z,9.73
2022-08-31T00:23:06.191Z,8.95
2022-08-31T00:25:34.244Z,9.52
2022-08-31T00:28:01.582Z,10.02
2022-08-31T00:30:28.370Z,9.27
2022-08-31T00:32:58.264Z,8.65
2022-08-31T00:35:26.691Z,9.05
2022-08-31T00:37:53.548Z,9.00
2022-08-31T00:40:20.921Z,9.05
2022-08-31T00:42:47.716Z,8.93
2022-08-31T00:45:15.083Z,8.63
2022-08-31T00:47:41.855Z,8.40
2022-08-31T00:50:12.730Z,8.95
2022-08-31T00:52:42.719Z,8.75
2022-08-31T00:55:16.995Z,9.02
2022-08-31T00:57:47.838Z,8.38
2022-08-31T01:00:20.028Z,8.15
2022-08-31T01:02:47.357Z,8.30
2022-08-31T01:05:15.798Z,7.38
2022-08-31T01:07:45.172Z,7.45
2022-08-31T01:10:11.945Z,7.60
2022-08-31T01:12:39.037Z,7.82
2022-08-31T01:15:08.513Z,8.52
2022-08-31T01:17:36.625Z,7.95
2022-08-31T01:20:26.552Z,7.18
2022-08-31T01:23:02.172Z,7.68
2022-08-31T01:25:33.670Z,7.18
2022-08-31T01:28:04.408Z,7.28
2022-08-31T01:30:31.297Z,7.10
2022-08-31T01:32:58.120Z,6.90
2022-08-31T01:35:25.362Z,7.10
2022-08-31T01:37:53.764Z,6.97
2022-08-31T01:40:20.744Z,6.80
2022-08-31T01:42:47.508Z,6.85
2022-08-31T01:45:14.244Z,6.22
2022-08-31T01:47:41.586Z,6.75
2022-08-31T01:50:09.063Z,6.25
2022-08-31T01:52:38.312Z,6.63
2022-08-31T01:55:07.599Z,6.72
2022-08-31T01:57:34.749Z,6.85
2022-08-31T02:00:08.018Z,7.93
2022-08-31T02:02:35.209Z,7.57
2022-08-31T02:05:02.077Z,8.50
2022-08-31T02:07:28.873Z,7.18
2022-08-31T02:09:55.617Z,7.20
2022-08-31T02:12:22.537Z,7.25
2022-08-31T02:14:49.256Z,7.10
2022-08-31T02:17:16.263Z,7.20
2022-08-31T02:19:43.277Z,7.05
2022-08-31T02:22:10.037Z,7.30
2022-08-31T02:24:36.968Z,6.93
2022-08-31T02:27:03.857Z,7.30
2022-08-31T02:29:30.592Z,7.22
2022-08-31T02:31:58.644Z,7.63
2022-08-31T02:34:25.515Z,7.20
2022-08-31T02:36:52.431Z,6.72
2022-08-31T02:39:19.175Z,6.95
2022-08-31T02:41:46.188Z,6.90
2022-08-31T02:44:13.020Z,6.15
2022-08-31T02:46:39.857Z,6.40
2022-08-31T02:49:06.678Z,6.43
2022-08-31T02:51:33.374Z,6.38
2022-08-31T02:54:00.089Z,6.50
2022-08-31T02:56:26.881Z,6.03
2022-08-31T02:58:55.249Z,5.97
2022-08-31T03:01:26.544Z,6.28
2022-08-31T03:03:53.487Z,6.15
2022-08-31T03:06:20.781Z,6.00
2022-08-31T03:08:47.729Z,6.03
2022-08-31T03:11:17.434Z,6.32
2022-08-31T03:13:44.463Z,5.93
2022-08-31T03:16:14.510Z,6.47
2022-08-31T03:18:41.857Z,6.30
2022-08-31T03:21:08.617Z,6.03
2022-08-31T03:23:35.929Z,6.18
2022-08-31T03:26:05.496Z,6.32
2022-08-31T03:28:34.327Z,6.57
2022-08-31T03:31:02.499Z,6.05
2022-08-31T03:33:29.232Z,6.35
2022-08-31T03:35:56.057Z,7.38
2022-08-31T03:38:22.789Z,6.38
2022-08-31T03:40:51.021Z,6.68
2022-08-31T03:43:17.931Z,7.20
2022-08-31T03:45:44.837Z,7.10
2022-08-31T03:48:12.749Z,7.35
2022-08-31T03:50:41.316Z,6.93
2022-08-31T03:53:08.747Z,6.40
2022-08-31T03:55:39.381Z,7.20
2022-08-31T03:58:07.468Z,6.80
2022-08-31T04:00:35.105Z,6.70
2022-08-31T04:03:02.437Z,6.90
2022-08-31T04:05:31.687Z,7.43
2022-08-31T04:07:58.895Z,6.60
2022-08-31T04:10:25.952Z,7.85
2022-08-31T04:12:52.839Z,8.05
2022-08-31T04:15:20.753Z,7.32
2022-08-31T04:17:47.504Z,7.75
2022-08-31T04:20:14.387Z,7.88
2022-08-31T04:22:41.303Z,7.80
2022-08-31T04:25:10.404Z,7.78
2022-08-31T04:27:40.529Z,7.78
2022-08-31T04:30:09.207Z,7.75
2022-08-31T04:32:36.324Z,8.18
2022-08-31T04:35:04.313Z,8.27
2022-08-31T04:37:31.509Z,7.97
2022-08-31T04:39:59.118Z,8.52
2022-08-31T04:42:30.182Z,7.65
2022-08-31T04:44:57.010Z,8.15
2022-08-31T04:47:23.814Z,8.25
2022-08-31T04:49:50.529Z,8.15
2022-08-31T04:52:17.275Z,8.32
2022-08-31T04:54:43.979Z,9.25
2022-08-31T04:57:10.760Z,8.05
2022-08-31T04:59:37.519Z,9.55
2022-08-31T05:02:04.427Z,8.98
2022-08-31T05:04:31.907Z,8.52
2022-08-31T05:06:58.811Z,8.32
2022-08-31T05:09:26.032Z,9.25
2022-08-31T05:11:54.654Z,9.55
2022-08-31T05:14:22.702Z,8.82
2022-08-31T05:16:50.265Z,9.55
2022-08-31T05:19:17.646Z,10.82
2022-08-31T05:21:45.086Z,10.77
2022-08-31T05:24:13.660Z,9.55
2022-08-31T05:26:48.264Z,10.43
2022-08-31T05:29:16.658Z,10.93
2022-08-31T05:31:48.052Z,9.98
2022-08-31T05:34:18.328Z,12.77
2022-08-31T05:36:49.076Z,10.57
2022-08-31T05:39:15.833Z,10.82
2022-08-31T05:41:44.993Z,12.00
2022-08-31T05:44:13.058Z,11.10
2022-08-31T05:46:40.744Z,11.02
2022-08-31T05:49:08.555Z,12.15
2022-08-31T05:51:38.069Z,12.75
2022-08-31T05:54:06.516Z,11.35
2022-08-31T05:56:34.526Z,12.48
2022-08-31T05:59:01.717Z,12.00
2022-08-31T06:01:38.747Z,13.75
2022-08-31T06:04:07.207Z,13.13
2022-08-31T06:06:34.402Z,12.75
2022-08-31T06:09:01.275Z,13.93
2022-08-31T06:11:31.117Z,13.70
2022-08-31T06:14:00.223Z,13.13
2022-08-31T06:16:28.596Z,13.73
2022-08-31T06:18:55.852Z,13.90
2022-08-31T06:21:31.015Z,15.07
2022-08-31T06:23:59.718Z,14.73
2022-08-31T06:26:29.279Z,13.05
2022-08-31T06:28:59.188Z,12.20
2022-08-31T06:31:37.432Z,13.75
2022-08-31T06:34:07.051Z,13.20
2022-08-31T06:36:34.034Z,12.15
2022-08-31T06:39:02.399Z,12.00
2022-08-31T06:41:36.399Z,12.18
2022-08-31T06:46:33.237Z,13.15
2022-08-31T06:49:00.933Z,12.70
2022-08-31T06:51:28.493Z,12.82
2022-08-31T06:53:55.859Z,12.55
2022-08-31T06:56:25.368Z,14.18
2022-08-31T06:58:53.708Z,11.50
2022-08-31T07:01:35.355Z,11.07
2022-08-31T07:04:09.217Z,11.27
2022-08-31T07:06:38.884Z,11.70
2022-08-31T07:09:09.047Z,13.02
2022-08-31T07:11:44.698Z,11.32
2022-08-31T07:14:14.473Z,11.98
2022-08-31T07:16:43.245Z,11.13
2022-08-31T07:19:10.620Z,10.30
2022-08-31T07:21:49.789Z,10.43
2022-08-31T07:24:24.385Z,12.43
2022-08-31T07:27:00.110Z,10.82
2022-08-31T07:29:30.416Z,11.65
2022-08-31T07:31:59.312Z,10.77
2022-08-31T07:34:28.811Z,11.43
2022-08-31T07:37:16.454Z,11.32
2022-08-31T07:40:07.057Z,11.90
2022-08-31T07:42:39.707Z,9.85
2022-08-31T07:45:12.587Z,10.32
2022-08-31T07:47:46.100Z,10.77
2022-08-31T07:50:15.925Z,9.90
2022-08-31T07:52:47.545Z,10.27
2022-08-31T07:55:16.454Z,11.73
2022-08-31T07:57:44.183Z,11.15
2022-08-31T08:00:20.909Z,13.80
2022-08-31T08:02:52.971Z,9.98
2022-08-31T08:05:26.808Z,10.10
2022-08-31T08:07:56.269Z,10.80
2022-08-31T08:10:24.204Z,9.68
2022-08-31T08:12:57.210Z,7.78
2022-08-31T08:15:25.029Z,9.27
2022-08-31T08:17:52.225Z,8.25
2022-08-31T08:20:34.335Z,8.02
2022-08-31T08:23:17.997Z,9.85
2022-08-31T08:25:56.016Z,8.38
2022-08-31T08:28:45.951Z,8.48
2022-08-31T08:31:19.072Z,8.70
2022-08-31T08:33:46.194Z,8.63
2022-08-31T08:36:15.216Z,8.85
2022-08-31T08:38:46.495Z,8.90
2022-08-31T08:41:22.481Z,8.57
2022-08-31T08:44:02.170Z,8.85
2022-08-31T08:46:37.651Z,9.88
2022-08-31T08:49:35.255Z,10.23
2022-08-31T08:52:07.766Z,10.85
2022-08-31T08:54:42.495Z,10.32
2022-08-31T08:57:26.183Z,9.07
2022-08-31T08:59:57.425Z,9.68
2022-08-31T09:02:42.597Z,9.63
2022-08-31T09:05:22.361Z,12.32
2022-08-31T09:08:15.337Z,13.20
2022-08-31T09:11:17.951Z,11.25
2022-08-31T09:14:19.816Z,12.02
2022-08-31T09:17:01.602Z,11.02
2022-08-31T09:19:28.513Z,10.15
2022-08-31T09:21:57.704Z,11.27
2022-08-31T09:24:30.176Z,12.57
2022-08-31T09:27:19.189Z,11.43
2022-08-31T09:29:54.355Z,12.45
2022-08-31T09:32:31.533Z,11.30
2022-08-31T09:35:05.224Z,13.18
2022-08-31T09:37:40.369Z,12.93
2022-08-31T09:40:16.863Z,11.15
2022-08-31T09:43:09.984Z,14.50
2022-08-31T09:45:42.537Z,12.60
2022-08-31T09:48:09.824Z,12.77
2022-08-31T09:50:47.011Z,11.65
2022-08-31T09:53:45.102Z,13.07
2022-08-31T09:56:15.679Z,14.00
2022-08-31T09:58:51.315Z,14.60
2022-08-31T10:01:30.575Z,12.80
2022-08-31T10:04:27.799Z,12.95
2022-08-31T10:07:19.471Z,13.85
2022-08-31T10:09:48.118Z,14.00
2022-08-31T10:12:45.074Z,11.40
2022-08-31T10:15:18.027Z,13.65
2022-08-31T10:18:03.224Z,14.02
2022-08-31T10:20:38.212Z,12.85
2022-08-31T10:23:15.273Z,13.55
2022-08-31T10:25:48.085Z,12.10
2022-08-31T10:28:40.164Z,12.63
2022-08-31T10:31:21.210Z,13.90
2022-08-31T10:34:15.139Z,15.63
2022-08-31T10:36:43.481Z,14.25
2022-08-31T10:39:35.116Z,14.55
2022-08-31T10:42:07.217Z,17.70
2022-08-31T10:44:39.282Z,14.98
2022-08-31T10:47:06.142Z,15.52
2022-08-31T10:49:35.379Z,17.30
2022-08-31T10:52:21.371Z,16.90
2022-08-31T10:55:06.778Z,17.23
2022-08-31T10:57:49.740Z,18.55
2022-08-31T11:00:48.858Z,19.83
2022-08-31T11:03:26.102Z,16.13
2022-08-31T11:06:20.845Z,18.65
2022-08-31T11:09:15.094Z,19.80
2022-08-31T11:11:46.548Z,15.73
2022-08-31T11:14:45.341Z,15.80
2022-08-31T11:17:37.947Z,17.00
2022-08-31T11:20:06.306Z,16.38
2022-08-31T11:22:37.563Z,16.75
2022-08-31T11:25:10.447Z,16.55
2022-08-31T11:27:52.454Z,13.48
2022-08-31T11:30:24.554Z,14.10
2022-08-31T11:33:00.475Z,15.88
2022-08-31T11:36:04.037Z,14.15
2022-08-31T11:38:48.914Z,12.80
2022-08-31T11:41:34.211Z,13.98
2022-08-31T11:44:04.646Z,13.68
2022-08-31T11:46:34.542Z,14.48
2022-08-31T11:49:01.320Z,13.40
2022-08-31T11:51:41.590Z,15.88
2022-08-31T11:54:26.711Z,12.32
2022-08-31T11:59:26.351Z,14.88
2022-08-31T12:01:56.654Z,13.18
2022-08-31T12:04:47.630Z,12.18
2022-08-31T12:07:26.681Z,11.50
2022-08-31T12:10:01.483Z,14.68
2022-08-31T12:12:28.205Z,11.02
2022-08-31T12:15:04.916Z,13.07
2022-08-31T12:17:56.164Z,14.38
2022-08-31T12:20:55.653Z,15.88
2022-08-31T12:23:37.995Z,15.45
2022-08-31T12:26:26.133Z,14.48
2022-08-31T12:28:54.036Z,12.13
2022-08-31T12:31:21.024Z,15.13
2022-08-31T12:33:59.258Z,14.35
2022-08-31T12:36:29.069Z,13.38
2022-08-31T12:39:23.803Z,11.52
2022-08-31T12:41:57.414Z,16.30
2022-08-31T12:44:34.215Z,14.98
2022-08-31T12:47:31.543Z,16.80
2022-08-31T12:50:24.120Z,14.63
2022-08-31T12:53:34.611Z,12.77
2022-08-31T12:56:18.571Z,14.73
2022-08-31T12:59:03.337Z,13.80
2022-08-31T13:04:01.192Z,12.45
2022-08-31T13:06:32.740Z,13.32
2022-08-31T13:09:00.909Z,12.55
2022-08-31T13:11:33.152Z,10.50
2022-08-31T13:14:11.861Z,12.88
2022-08-31T13:16:41.107Z,10.38
2022-08-31T13:19:08.599Z,10.93
2022-08-31T13:21:36.803Z,11.80
2022-08-31T13:24:10.659Z,9.88
2022-08-31T13:26:38.035Z,8.02
2022-08-31T13:29:08.309Z,9.63
2022-08-31T13:31:47.349Z,10.98
2022-08-31T13:34:14.333Z,11.07
2022-08-31T13:37:01.545Z,9.63
2022-08-31T13:39:39.083Z,10.77
2022-08-31T13:42:20.857Z,7.63
2022-08-31T13:44:54.948Z,8.05
2022-08-31T13:47:32.201Z,8.18
2022-08-31T13:50:13.113Z,7.30
2022-08-31T13:53:22.613Z,5.85
2022-08-31T13:55:43.719Z,6.35
2022-08-31T13:58:29.160Z,5.40
2022-08-31T14:01:23.829Z,5.32
2022-08-31T14:03:59.606Z,5.47
2022-08-31T14:06:38.085Z,5.30
2022-08-31T14:09:17.681Z,4.72
2022-08-31T14:11:54.239Z,4.63
2022-08-31T14:14:29.933Z,4.03
2022-08-31T14:17:00.227Z,4.22
2022-08-31T14:19:39.045Z,4.22
2022-08-31T14:22:29.222Z,4.55
2022-08-31T14:24:56.650Z,4.10
2022-08-31T14:27:24.375Z,3.53
2022-08-31T14:29:52.112Z,4.00
2022-08-31T14:32:22.172Z,3.15
2022-08-31T14:34:49.296Z,3.50
2022-08-31T14:37:22.563Z,3.83
2022-08-31T14:39:55.149Z,4.13
2022-08-31T14:42:26.644Z,3.97
2022-08-31T14:44:56.724Z,4.18
2022-08-31T14:47:27.570Z,4.35
2022-08-31T14:49:56.976Z,3.72
2022-08-31T14:52:25.629Z,3.88
2022-08-31T14:54:53.872Z,4.80
2022-08-31T14:57:25.324Z,4.30
2022-08-31T14:59:59.646Z,5.00
2022-08-31T15:05:06.603Z,4.10
2022-08-31T15:07:36.485Z,4.22
2022-08-31T15:10:06.765Z,4.30
2022-08-31T15:12:34.484Z,3.80
2022-08-31T15:15:01.418Z,3.53
2022-08-31T15:17:30.223Z,4.40
2022-08-31T15:19:57.441Z,4.63
2022-08-31T15:22:26.278Z,5.18
2022-08-31T15:24:54.129Z,4.70
2022-08-31T15:27:22.433Z,4.63
2022-08-31T15:29:51.851Z,6.05
2022-08-31T15:32:18.764Z,7.03
2022-08-31T15:34:57.962Z,6.07
2022-08-31T15:37:32.776Z,6.80
2022-08-31T15:40:05.150Z,6.55
2022-08-31T15:45:08.182Z,6.40
2022-08-31T15:47:56.231Z,5.93
2022-08-31T15:50:32.067Z,6.00
2022-08-31T15:53:06.678Z,6.78
2022-08-31T15:55:38.289Z,7.03
2022-08-31T15:58:05.403Z,7.03
2022-08-31T16:00:32.796Z,6.60
2022-08-31T16:03:01.682Z,7.15
2022-08-31T16:05:31.431Z,6.82
2022-08-31T16:07:58.450Z,7.07
2022-08-31T16:10:27.818Z,6.82
2022-08-31T16:12:54.722Z,6.55
2022-08-31T16:15:24.662Z,6.88
2022-08-31T16:17:52.002Z,6.80
2022-08-31T16:20:18.947Z,5.93
2022-08-31T16:22:45.801Z,6.72
2022-08-31T16:25:14.470Z,6.47
2022-08-31T16:27:43.421Z,6.60
2022-08-31T16:30:12.056Z,6.78
2022-08-31T16:32:38.956Z,7.03
2022-08-31T16:35:06.181Z,7.10
2022-08-31T16:37:33.789Z,7.43
2022-08-31T16:40:00.933Z,6.90
2022-08-31T16:42:28.220Z,7.50
2022-08-31T16:44:59.726Z,7.20
2022-08-31T16:47:29.183Z,7.80
2022-08-31T16:49:56.227Z,7.22
2022-08-31T16:52:27.356Z,6.70
2022-08-31T16:54:57.403Z,7.53
2022-08-31T16:57:27.793Z,7.57
2022-08-31T16:59:56.530Z,6.47
2022-08-31T17:02:25.010Z,6.80
2022-08-31T17:04:53.948Z,7.45
2022-08-31T17:07:23.746Z,8.18
2022-08-31T17:09:55.700Z,6.93
2022-08-31T17:12:26.106Z,7.60
2022-08-31T17:14:53.273Z,7.80
2022-08-31T17:17:22.977Z,6.57
2022-08-31T17:19:52.250Z,8.25
2022-08-31T17:22:27.003Z,8.60
2022-08-31T17:24:58.734Z,8.98
2022-08-31T17:27:26.701Z,8.60
2022-08-31T17:29:56.282Z,8.55
2022-08-31T17:32:27.648Z,9.13
2022-08-31T17:34:55.707Z,8.38
2022-08-31T17:37:27.152Z,9.15
2022-08-31T17:39:55.519Z,8.90
2022-08-31T17:42:27.176Z,9.35
2022-08-31T17:44:55.361Z,8.93
2022-08-31T17:47:24.591Z,9.88
2022-08-31T17:49:52.689Z,9.88
2022-08-31T17:52:21.838Z,8.65
2022-08-31T17:54:51.069Z,8.50
2022-08-31T17:57:23.023Z,7.63
2022-08-31T17:59:49.951Z,8.25
2022-08-31T18:02:26.602Z,7.43
2022-08-31T18:04:53.778Z,7.78
2022-08-31T18:07:20.934Z,8.90
2022-08-31T18:09:47.942Z,8.00
2022-08-31T18:12:16.598Z,8.77
2022-08-31T18:14:44.503Z,7.53
2022-08-31T18:17:16.060Z,8.65
2022-08-31T18:19:43.585Z,7.75
2022-08-31T18:22:10.913Z,8.73
2022-08-31T18:24:38.563Z,7.88
2022-08-31T18:27:09.232Z,7.35
2022-08-31T18:29:37.795Z,7.93
2022-08-31T18:32:06.434Z,7.95
2022-08-31T18:34:36.357Z,7.22
2022-08-31T18:37:04.407Z,8.38
2022-08-31T18:39:52.011Z,7.78
2022-08-31T18:42:53.034Z,6.85
2022-08-31T18:45:20.299Z,7.53
2022-08-31T18:50:44.269Z,8.68
2022-08-31T18:53:15.604Z,8.00
2022-08-31T18:55:54.155Z,8.45
2022-08-31T18:58:21.084Z,7.85
2022-08-31T19:00:57.623Z,6.90
2022-08-31T19:03:28.817Z,6.78
2022-08-31T19:05:57.005Z,7.35
2022-08-31T19:08:24.512Z,7.65
2022-08-31T19:10:52.755Z,7.40
2022-08-31T19:13:20.593Z,8.25
2022-08-31T19:15:47.999Z,7.60
2022-08-31T19:18:15.524Z,8.25
2022-08-31T19:20:43.322Z,8.73
2022-08-31T19:23:10.197Z,8.65
2022-08-31T19:25:45.323Z,8.20
2022-08-31T19:28:12.568Z,9.45
2022-08-31T19:30:39.927Z,7.35
2022-08-31T19:33:09.744Z,8.13
2022-08-31T19:35:38.507Z,7.85
2022-08-31T19:38:06.158Z,7.72
2022-08-31T19:40:40.002Z,7.70
2022-08-31T19:45:54.569Z,9.73
2022-08-31T19:48:23.729Z,8.88
2022-08-31T19:50:52.112Z,8.93
2022-08-31T19:53:21.148Z,8.85
2022-08-31T19:55:51.588Z,9.60
2022-08-31T19:58:26.468Z,9.38
2022-08-31T20:01:00.625Z,8.70
2022-08-31T20:03:28.340Z,8.90
2022-08-31T20:05:57.094Z,9.57
2022-08-31T20:08:23.905Z,9.05
2022-08-31T20:10:50.712Z,9.48
2022-08-31T20:13:21.782Z,10.10
2022-08-31T20:15:49.039Z,8.93
2022-08-31T20:18:16.001Z,9.40
2022-08-31T20:20:45.568Z,8.75
2022-08-31T20:23:17.001Z,8.85
2022-08-31T20:25:46.230Z,8.07
2022-08-31T20:28:13.842Z,8.38
2022-08-31T20:30:43.162Z,10.80
2022-08-31T20:33:11.688Z,9.15
2022-08-31T20:35:47.584Z,10.30
2022-08-31T20:38:17.364Z,10.40
2022-08-31T20:40:47.371Z,11.25
2022-08-31T20:43:15.007Z,11.90
2022-08-31T20:45:42.228Z,10.30
2022-08-31T20:48:28.454Z,11.60
2022-08-31T20:50:55.972Z,11.90
2022-08-31T20:53:42.102Z,12.63
2022-08-31T20:56:14.887Z,13.52
2022-08-31T20:58:45.609Z,12.93
2022-08-31T21:01:13.649Z,13.60
2022-08-31T21:03:40.994Z,13.73
2022-08-31T21:06:11.630Z,14.45
2022-08-31T21:08:40.926Z,14.88
2022-08-31T21:11:15.028Z,12.82
2022-08-31T21:13:42.887Z,14.07
2022-08-31T21:16:09.937Z,15.13
2022-08-31T21:18:37.893Z,12.75
2022-08-31T21:21:08.230Z,14.30
2022-08-31T21:23:36.761Z,14.68
2022-08-31T21:26:04.902Z,13.88
2022-08-31T21:28:31.647Z,13.38
2022-08-31T21:31:16.425Z,14.43
2022-08-31T21:33:46.380Z,13.18
2022-08-31T21:36:15.386Z,15.02
2022-08-31T21:38:43.500Z,12.82
2022-08-31T21:41:12.118Z,16.77
2022-08-31T21:43:39.906Z,15.32
2022-08-31T21:46:15.958Z,17.02
2022-08-31T21:48:44.369Z,17.30
2022-08-31T21:51:18.012Z,17.40
2022-08-31T21:53:47.926Z,18.07
2022-08-31T21:56:15.749Z,16.08
2022-08-31T21:58:42.823Z,14.65
2022-08-31T22:01:13.550Z,16.35
2022-08-31T22:03:40.907Z,14.20
2022-08-31T22:06:09.211Z,14.20
2022-08-31T22:08:37.607Z,14.25
2022-08-31T22:11:17.898Z,13.70
2022-08-31T22:13:47.975Z,15.20
2022-08-31T22:16:20.063Z,14.80
2022-08-31T22:19:02.075Z,14.60
2022-08-31T22:21:34.601Z,17.95
2022-08-31T22:24:05.945Z,17.80
2022-08-31T22:26:36.720Z,16.40
2022-08-31T22:29:06.238Z,15.50
2022-08-31T22:31:36.700Z,14.15
2022-08-31T22:34:05.410Z,17.02
2022-08-31T22:36:32.717Z,15.90
2022-08-31T22:39:05.634Z,15.50
2022-08-31T22:41:33.531Z,17.42
2022-08-31T22:44:00.903Z,16.40
2022-08-31T22:46:28.406Z,17.90
2022-08-31T22:48:55.617Z,17.83
2022-08-31T22:51:22.654Z,15.73
2022-08-31T22:53:51.581Z,19.48
2022-08-31T22:56:27.053Z,18.00
2022-08-31T22:58:56.185Z,17.58
2022-08-31T23:01:24.555Z,18.67
2022-08-31T23:03:52.632Z,16.75
2022-08-31T23:06:20.823Z,16.63
2022-08-31T23:08:49.080Z,16.50
2022-08-31T23:11:19.083Z,17.48
2022-08-31T23:13:57.312Z,17.95
2022-08-31T23:16:37.163Z,17.90
2022-08-31T23:19:12.395Z,18.38
2022-08-31T23:21:53.067Z,16.42
2022-08-31T23:24:46.352Z,16.40
2022-08-31T23:27:15.047Z,15.55
2022-08-31T23:29:47.881Z,15.73
2022-08-31T23:32:18.228Z,18.00
2022-08-31T23:34:46.909Z,18.67
2022-08-31T23:37:14.176Z,17.77
2022-08-31T23:39:49.933Z,17.90
2022-08-31T23:42:16.980Z,19.42
2022-08-31T23:44:46.477Z,20.02
2022-08-31T23:47:20.242Z,18.70
2022-08-31T23:49:51.145Z,20.10
2022-08-31T23:52:21.440Z,20.45
2022-08-31T23:54:50.734Z,20.23
2022-08-31T23:57:32.600Z,19.90
